Main page
METAR-TAF:

METAR-TAF

Airports :

Växjö Småland Airport

Växjö, Sweden

latitude: 56-51N, longitude: 014-50E, elevation: 199 m

Current weather observation

The report was made 40 minutes ago, at 04:20 UTC
Wind 9 kt from the West/Southwest, varying between South/Southwest and West
Temperature 14°C
Humidity 94%
Pressure 1016 hPa
Visibility 10 km or more

METAR: ESMX 180420Z AUTO 25009KT 210V280 9999 OVC009/// 14/13 Q1016

Time: 07:00 (05:00 UTC)

Forecast

The report was made 8 hours and 30 minutes ago, at 20:30 UTC
Forecast valid from 17 at 21 UTC to 18 at 01 UTC
Wind 6 kt from the Southwest
Visibility 10 km or more
Scattered clouds at a height of 4000 ft
Probability 40%
from 17 at 23 UTC to 18 at 01 UTC
Broken clouds at a height of 800 ft

TAF: ESMX 172030Z 1721/1801 23006KT 9999 SCT040 PROB40 1723/1801 BKN008

Weather observations and forecasts of more than 4000 airports (METAR and TAF reports).

The available stations are represented by yellow and red dots on the map.

Hover mouse over dot to see the name of the station.

Then click to see weather observations and forecasts.

To change the map : click on the green buttons with a black cross to zoom in, on the green button with a dash to zoom out, or on the green arrows for adjacent maps.


METAR-TAF: